sensor_id;sensor_type;location;lat;lon;timestamp;temperature;humidity
43673;DHT22;41723;49.326;8.430;2023-07-30T00:01:38;20.00;99.90
43673;DHT22;41723;49.326;8.430;2023-07-30T00:04:04;20.00;99.90
43673;DHT22;41723;49.326;8.430;2023-07-30T00:06:29;20.00;99.90
43673;DHT22;41723;49.326;8.430;2023-07-30T00:08:55;19.90;99.90
43673;DHT22;41723;49.326;8.430;2023-07-30T00:11:21;19.90;99.90
43673;DHT22;41723;49.326;8.430;2023-07-30T00:13:46;19.90;99.90
43673;DHT22;41723;49.326;8.430;2023-07-30T00:16:12;19.90;99.90
43673;DHT22;41723;49.326;8.430;2023-07-30T00:18:37;19.90;99.90
43673;DHT22;41723;49.326;8.430;2023-07-30T00:21:03;19.90;99.90
43673;DHT22;41723;49.326;8.430;2023-07-30T00:23:29;20.00;99.90
43673;DHT22;41723;49.326;8.430;2023-07-30T00:25:54;20.00;99.90
43673;DHT22;41723;49.326;8.430;2023-07-30T00:28:20;20.00;99.90
43673;DHT22;41723;49.326;8.430;2023-07-30T00:30:46;20.00;99.90
43673;DHT22;41723;49.326;8.430;2023-07-30T00:33:11;20.00;99.90
43673;DHT22;41723;49.326;8.430;2023-07-30T00:35:37;19.90;99.90
43673;DHT22;41723;49.326;8.430;2023-07-30T00:38:03;20.00;99.90
43673;DHT22;41723;49.326;8.430;2023-07-30T00:40:28;20.00;99.90
43673;DHT22;41723;49.326;8.430;2023-07-30T00:42:54;20.00;99.90
43673;DHT22;41723;49.326;8.430;2023-07-30T00:45:19;20.00;99.90
43673;DHT22;41723;49.326;8.430;2023-07-30T00:47:45;20.00;99.90
43673;DHT22;41723;49.326;8.430;2023-07-30T00:50:11;20.00;99.90
43673;DHT22;41723;49.326;8.430;2023-07-30T00:52:38;20.00;99.90
43673;DHT22;41723;49.326;8.430;2023-07-30T00:55:06;20.00;99.90
43673;DHT22;41723;49.326;8.430;2023-07-30T00:57:32;20.00;99.90
43673;DHT22;41723;49.326;8.430;2023-07-30T00:59:58;20.10;99.90
43673;DHT22;41723;49.326;8.430;2023-07-30T01:02:24;20.00;99.90
43673;DHT22;41723;49.326;8.430;2023-07-30T01:04:50;20.10;99.90
43673;DHT22;41723;49.326;8.430;2023-07-30T01:07:16;20.00;99.90
43673;DHT22;41723;49.326;8.430;2023-07-30T01:09:41;20.10;99.90
43673;DHT22;41723;49.326;8.430;2023-07-30T01:12:07;20.00;99.90
43673;DHT22;41723;49.326;8.430;2023-07-30T01:14:33;20.00;99.90
43673;DHT22;41723;49.326;8.430;2023-07-30T01:16:59;20.00;99.90
43673;DHT22;41723;49.326;8.430;2023-07-30T01:19:24;20.10;99.90
43673;DHT22;41723;49.326;8.430;2023-07-30T01:21:50;20.10;99.90
43673;DHT22;41723;49.326;8.430;2023-07-30T01:24:16;20.10;99.90
43673;DHT22;41723;49.326;8.430;2023-07-30T01:26:46;20.10;99.90
43673;DHT22;41723;49.326;8.430;2023-07-30T01:29:19;20.20;99.90
43673;DHT22;41723;49.326;8.430;2023-07-30T01:31:47;20.20;99.90
43673;DHT22;41723;49.326;8.430;2023-07-30T01:34:17;20.20;99.90
43673;DHT22;41723;49.326;8.430;2023-07-30T01:36:43;20.10;99.90
43673;DHT22;41723;49.326;8.430;2023-07-30T01:39:09;20.10;99.90
43673;DHT22;41723;49.326;8.430;2023-07-30T01:41:35;20.10;99.90
43673;DHT22;41723;49.326;8.430;2023-07-30T01:44:00;20.10;99.90
43673;DHT22;41723;49.326;8.430;2023-07-30T01:46:26;20.10;99.90
43673;DHT22;41723;49.326;8.430;2023-07-30T01:48:51;20.10;99.90
43673;DHT22;41723;49.326;8.430;2023-07-30T01:51:17;20.20;99.90
43673;DHT22;41723;49.326;8.430;2023-07-30T01:53:44;20.20;99.90
43673;DHT22;41723;49.326;8.430;2023-07-30T01:56:10;20.30;99.90
43673;DHT22;41723;49.326;8.430;2023-07-30T01:58:36;20.20;99.90
43673;DHT22;41723;49.326;8.430;2023-07-30T02:01:01;20.20;99.90
43673;DHT22;41723;49.326;8.430;2023-07-30T02:03:27;20.20;99.90
43673;DHT22;41723;49.326;8.430;2023-07-30T02:05:53;20.20;99.90
43673;DHT22;41723;49.326;8.430;2023-07-30T02:08:18;20.20;99.90
43673;DHT22;41723;49.326;8.430;2023-07-30T02:10:44;20.20;99.90
43673;DHT22;41723;49.326;8.430;2023-07-30T02:13:09;20.20;99.90
43673;DHT22;41723;49.326;8.430;2023-07-30T02:15:39;20.20;99.90
43673;DHT22;41723;49.326;8.430;2023-07-30T02:18:04;20.20;99.90
43673;DHT22;41723;49.326;8.430;2023-07-30T02:20:30;20.30;99.90
43673;DHT22;41723;49.326;8.430;2023-07-30T02:22:56;20.30;99.90
43673;DHT22;41723;49.326;8.430;2023-07-30T02:25:21;20.30;99.90
43673;DHT22;41723;49.326;8.430;2023-07-30T02:27:47;20.30;99.90
43673;DHT22;41723;49.326;8.430;2023-07-30T02:30:12;20.30;99.90
43673;DHT22;41723;49.326;8.430;2023-07-30T02:32:38;20.30;99.90
43673;DHT22;41723;49.326;8.430;2023-07-30T02:35:04;20.30;99.90
43673;DHT22;41723;49.326;8.430;2023-07-30T02:37:29;20.30;99.90
43673;DHT22;41723;49.326;8.430;2023-07-30T02:39:55;20.30;99.90
43673;DHT22;41723;49.326;8.430;2023-07-30T02:42:20;20.20;99.90
43673;DHT22;41723;49.326;8.430;2023-07-30T02:44:46;20.10;99.90
43673;DHT22;41723;49.326;8.430;2023-07-30T02:47:12;20.10;99.90
43673;DHT22;41723;49.326;8.430;2023-07-30T02:49:38;20.10;99.90
43673;DHT22;41723;49.326;8.430;2023-07-30T02:52:03;20.10;99.90
43673;DHT22;41723;49.326;8.430;2023-07-30T02:54:29;20.20;99.90
43673;DHT22;41723;49.326;8.430;2023-07-30T02:56:54;20.20;99.90
43673;DHT22;41723;49.326;8.430;2023-07-30T02:59:20;20.20;99.90
43673;DHT22;41723;49.326;8.430;2023-07-30T03:01:45;20.20;99.90
43673;DHT22;41723;49.326;8.430;2023-07-30T03:04:11;20.10;99.90
43673;DHT22;41723;49.326;8.430;2023-07-30T03:06:37;20.20;99.90
43673;DHT22;41723;49.326;8.430;2023-07-30T03:09:02;20.10;99.90
43673;DHT22;41723;49.326;8.430;2023-07-30T03:11:28;20.10;99.90
43673;DHT22;41723;49.326;8.430;2023-07-30T03:13:54;20.10;99.90
43673;DHT22;41723;49.326;8.430;2023-07-30T03:16:19;20.10;99.90
43673;DHT22;41723;49.326;8.430;2023-07-30T03:18:45;20.20;99.90
43673;DHT22;41723;49.326;8.430;2023-07-30T03:21:10;20.20;99.90
43673;DHT22;41723;49.326;8.430;2023-07-30T03:23:38;20.20;99.90
43673;DHT22;41723;49.326;8.430;2023-07-30T03:26:04;20.20;99.90
43673;DHT22;41723;49.326;8.430;2023-07-30T03:28:30;20.20;99.90
43673;DHT22;41723;49.326;8.430;2023-07-30T03:30:55;20.20;99.90
43673;DHT22;41723;49.326;8.430;2023-07-30T03:33:21;20.20;99.90
43673;DHT22;41723;49.326;8.430;2023-07-30T03:35:46;20.20;99.90
43673;DHT22;41723;49.326;8.430;2023-07-30T03:38:12;20.20;99.90
43673;DHT22;41723;49.326;8.430;2023-07-30T03:40:38;20.20;99.90
43673;DHT22;41723;49.326;8.430;2023-07-30T03:43:03;20.20;99.90
43673;DHT22;41723;49.326;8.430;2023-07-30T03:45:29;20.10;99.90
43673;DHT22;41723;49.326;8.430;2023-07-30T03:47:55;20.10;99.90
43673;DHT22;41723;49.326;8.430;2023-07-30T03:50:20;20.10;99.90
43673;DHT22;41723;49.326;8.430;2023-07-30T03:52:46;20.10;99.90
43673;DHT22;41723;49.326;8.430;2023-07-30T03:55:12;20.00;99.90
43673;DHT22;41723;49.326;8.430;2023-07-30T03:57:38;19.90;99.90
43673;DHT22;41723;49.326;8.430;2023-07-30T04:00:04;20.00;99.90
43673;DHT22;41723;49.326;8.430;2023-07-30T04:02:39;20.00;99.90
43673;DHT22;41723;49.326;8.430;2023-07-30T04:05:05;20.00;99.90
43673;DHT22;41723;49.326;8.430;2023-07-30T04:07:31;19.90;99.90
43673;DHT22;41723;49.326;8.430;2023-07-30T04:09:56;19.90;99.90
43673;DHT22;41723;49.326;8.430;2023-07-30T04:12:22;19.90;99.90
43673;DHT22;41723;49.326;8.430;2023-07-30T04:14:48;19.90;99.90
43673;DHT22;41723;49.326;8.430;2023-07-30T04:17:13;19.90;99.90
43673;DHT22;41723;49.326;8.430;2023-07-30T04:19:39;19.90;99.90
43673;DHT22;41723;49.326;8.430;2023-07-30T04:22:04;19.90;99.90
43673;DHT22;41723;49.326;8.430;2023-07-30T04:24:30;19.90;99.90
43673;DHT22;41723;49.326;8.430;2023-07-30T04:26:56;19.90;99.90
43673;DHT22;41723;49.326;8.430;2023-07-30T04:29:21;20.00;99.90
43673;DHT22;41723;49.326;8.430;2023-07-30T04:31:47;20.00;99.90
43673;DHT22;41723;49.326;8.430;2023-07-30T04:34:12;20.00;99.90
43673;DHT22;41723;49.326;8.430;2023-07-30T04:36:39;19.90;99.90
43673;DHT22;41723;49.326;8.430;2023-07-30T04:39:05;19.90;99.90
43673;DHT22;41723;49.326;8.430;2023-07-30T04:41:33;20.00;99.90
43673;DHT22;41723;49.326;8.430;2023-07-30T04:43:58;20.00;99.90
43673;DHT22;41723;49.326;8.430;2023-07-30T04:46:26;20.10;99.90
43673;DHT22;41723;49.326;8.430;2023-07-30T04:48:52;20.10;99.90
43673;DHT22;41723;49.326;8.430;2023-07-30T04:51:19;20.10;99.90
43673;DHT22;41723;49.326;8.430;2023-07-30T04:53:46;20.10;99.90
43673;DHT22;41723;49.326;8.430;2023-07-30T04:56:11;20.20;99.90
43673;DHT22;41723;49.326;8.430;2023-07-30T04:58:37;20.20;99.90
43673;DHT22;41723;49.326;8.430;2023-07-30T05:01:03;20.10;99.90
43673;DHT22;41723;49.326;8.430;2023-07-30T05:03:28;20.10;99.90
43673;DHT22;41723;49.326;8.430;2023-07-30T05:05:54;20.00;99.90
43673;DHT22;41723;49.326;8.430;2023-07-30T05:08:20;20.00;99.90
43673;DHT22;41723;49.326;8.430;2023-07-30T05:10:45;20.00;99.90
43673;DHT22;41723;49.326;8.430;2023-07-30T05:13:11;20.00;99.90
43673;DHT22;41723;49.326;8.430;2023-07-30T05:15:38;19.90;99.90
43673;DHT22;41723;49.326;8.430;2023-07-30T05:18:04;19.90;99.90
43673;DHT22;41723;49.326;8.430;2023-07-30T05:20:29;20.00;99.90
43673;DHT22;41723;49.326;8.430;2023-07-30T05:22:55;19.90;99.90
43673;DHT22;41723;49.326;8.430;2023-07-30T05:25:20;19.90;99.90
43673;DHT22;41723;49.326;8.430;2023-07-30T05:27:46;19.80;99.90
43673;DHT22;41723;49.326;8.430;2023-07-30T05:30:11;19.80;99.90
43673;DHT22;41723;49.326;8.430;2023-07-30T05:32:37;19.80;99.90
43673;DHT22;41723;49.326;8.430;2023-07-30T05:35:03;19.80;99.90
43673;DHT22;41723;49.326;8.430;2023-07-30T05:37:28;19.70;99.90
43673;DHT22;41723;49.326;8.430;2023-07-30T05:39:54;19.70;99.90
43673;DHT22;41723;49.326;8.430;2023-07-30T05:42:19;19.80;99.90
43673;DHT22;41723;49.326;8.430;2023-07-30T05:44:45;19.70;99.90
43673;DHT22;41723;49.326;8.430;2023-07-30T05:47:11;19.70;99.90
43673;DHT22;41723;49.326;8.430;2023-07-30T05:49:36;19.70;99.90
43673;DHT22;41723;49.326;8.430;2023-07-30T05:52:02;19.70;99.90
43673;DHT22;41723;49.326;8.430;2023-07-30T05:54:27;19.70;99.90
43673;DHT22;41723;49.326;8.430;2023-07-30T05:56:53;19.70;99.90
43673;DHT22;41723;49.326;8.430;2023-07-30T05:59:19;19.80;99.90
43673;DHT22;41723;49.326;8.430;2023-07-30T06:01:45;19.90;99.90
43673;DHT22;41723;49.326;8.430;2023-07-30T06:04:10;19.90;99.90
43673;DHT22;41723;49.326;8.430;2023-07-30T06:06:36;20.00;99.90
43673;DHT22;41723;49.326;8.430;2023-07-30T06:09:02;20.00;99.90
43673;DHT22;41723;49.326;8.430;2023-07-30T06:11:27;20.00;99.90
43673;DHT22;41723;49.326;8.430;2023-07-30T06:13:53;20.00;99.90
43673;DHT22;41723;49.326;8.430;2023-07-30T06:16:18;20.00;99.90
43673;DHT22;41723;49.326;8.430;2023-07-30T06:18:45;20.00;99.90
43673;DHT22;41723;49.326;8.430;2023-07-30T06:21:11;20.10;99.90
43673;DHT22;41723;49.326;8.430;2023-07-30T06:23:37;20.20;99.90
43673;DHT22;41723;49.326;8.430;2023-07-30T06:26:02;20.30;99.90
43673;DHT22;41723;49.326;8.430;2023-07-30T06:28:28;20.40;99.90
43673;DHT22;41723;49.326;8.430;2023-07-30T06:30:53;20.50;99.90
43673;DHT22;41723;49.326;8.430;2023-07-30T06:33:19;20.50;99.90
43673;DHT22;41723;49.326;8.430;2023-07-30T06:35:45;20.50;99.90
43673;DHT22;41723;49.326;8.430;2023-07-30T06:38:10;20.60;99.90
43673;DHT22;41723;49.326;8.430;2023-07-30T06:40:36;20.60;99.90
43673;DHT22;41723;49.326;8.430;2023-07-30T06:43:01;20.50;99.90
43673;DHT22;41723;49.326;8.430;2023-07-30T06:45:27;20.50;99.90
43673;DHT22;41723;49.326;8.430;2023-07-30T06:47:53;20.50;99.90
43673;DHT22;41723;49.326;8.430;2023-07-30T06:50:18;20.40;99.90
43673;DHT22;41723;49.326;8.430;2023-07-30T06:52:44;20.40;99.90
43673;DHT22;41723;49.326;8.430;2023-07-30T06:55:10;20.30;99.90
43673;DHT22;41723;49.326;8.430;2023-07-30T06:57:35;20.20;99.90
43673;DHT22;41723;49.326;8.430;2023-07-30T07:00:01;20.20;99.90
43673;DHT22;41723;49.326;8.430;2023-07-30T07:02:27;20.20;99.90
43673;DHT22;41723;49.326;8.430;2023-07-30T07:04:53;20.20;99.90
43673;DHT22;41723;49.326;8.430;2023-07-30T07:07:19;20.20;99.90
43673;DHT22;41723;49.326;8.430;2023-07-30T07:09:45;20.20;99.90
43673;DHT22;41723;49.326;8.430;2023-07-30T07:12:11;20.20;99.90
43673;DHT22;41723;49.326;8.430;2023-07-30T07:14:37;20.10;99.90
43673;DHT22;41723;49.326;8.430;2023-07-30T07:17:02;20.10;99.90
43673;DHT22;41723;49.326;8.430;2023-07-30T07:19:28;20.10;99.90
43673;DHT22;41723;49.326;8.430;2023-07-30T07:21:54;20.10;99.90
43673;DHT22;41723;49.326;8.430;2023-07-30T07:24:19;20.10;99.90
43673;DHT22;41723;49.326;8.430;2023-07-30T07:26:45;20.00;99.90
43673;DHT22;41723;49.326;8.430;2023-07-30T07:29:10;20.00;99.90
43673;DHT22;41723;49.326;8.430;2023-07-30T07:31:36;20.10;99.90
43673;DHT22;41723;49.326;8.430;2023-07-30T07:34:01;20.00;99.90
43673;DHT22;41723;49.326;8.430;2023-07-30T07:36:27;20.00;99.90
43673;DHT22;41723;49.326;8.430;2023-07-30T07:38:52;20.00;99.90
43673;DHT22;41723;49.326;8.430;2023-07-30T07:41:18;20.00;99.90
43673;DHT22;41723;49.326;8.430;2023-07-30T07:43:45;20.00;99.90
43673;DHT22;41723;49.326;8.430;2023-07-30T07:46:11;20.10;99.90
43673;DHT22;41723;49.326;8.430;2023-07-30T07:48:42;20.20;99.90
43673;DHT22;41723;49.326;8.430;2023-07-30T07:51:08;20.20;99.90
43673;DHT22;41723;49.326;8.430;2023-07-30T07:53:34;20.20;99.90
43673;DHT22;41723;49.326;8.430;2023-07-30T07:55:59;20.40;99.90
43673;DHT22;41723;49.326;8.430;2023-07-30T07:58:25;20.40;99.90
43673;DHT22;41723;49.326;8.430;2023-07-30T08:00:53;20.50;99.90
43673;DHT22;41723;49.326;8.430;2023-07-30T08:03:19;20.70;99.90
43673;DHT22;41723;49.326;8.430;2023-07-30T08:05:44;20.80;99.90
43673;DHT22;41723;49.326;8.430;2023-07-30T08:08:10;20.80;99.90
43673;DHT22;41723;49.326;8.430;2023-07-30T08:10:38;20.90;99.90
43673;DHT22;41723;49.326;8.430;2023-07-30T08:13:03;20.90;99.90
43673;DHT22;41723;49.326;8.430;2023-07-30T08:15:29;20.90;99.90
43673;DHT22;41723;49.326;8.430;2023-07-30T08:17:55;20.90;99.90
43673;DHT22;41723;49.326;8.430;2023-07-30T08:20:20;20.90;99.90
43673;DHT22;41723;49.326;8.430;2023-07-30T08:22:46;20.90;99.90
43673;DHT22;41723;49.326;8.430;2023-07-30T08:25:11;20.80;99.90
43673;DHT22;41723;49.326;8.430;2023-07-30T08:27:37;20.90;99.90
43673;DHT22;41723;49.326;8.430;2023-07-30T08:30:03;20.90;99.90
43673;DHT22;41723;49.326;8.430;2023-07-30T08:32:28;21.00;99.90
43673;DHT22;41723;49.326;8.430;2023-07-30T08:34:54;21.10;99.90
43673;DHT22;41723;49.326;8.430;2023-07-30T08:37:19;21.20;99.90
43673;DHT22;41723;49.326;8.430;2023-07-30T08:39:45;21.40;99.90
43673;DHT22;41723;49.326;8.430;2023-07-30T08:42:11;21.40;99.90
43673;DHT22;41723;49.326;8.430;2023-07-30T08:44:36;21.50;99.90
43673;DHT22;41723;49.326;8.430;2023-07-30T08:47:02;21.50;99.90
43673;DHT22;41723;49.326;8.430;2023-07-30T08:49:28;21.60;99.90
43673;DHT22;41723;49.326;8.430;2023-07-30T08:51:58;21.60;99.90
43673;DHT22;41723;49.326;8.430;2023-07-30T08:54:24;21.50;99.90
43673;DHT22;41723;49.326;8.430;2023-07-30T08:56:52;21.40;99.90
43673;DHT22;41723;49.326;8.430;2023-07-30T08:59:18;21.60;99.90
43673;DHT22;41723;49.326;8.430;2023-07-30T09:01:45;21.50;99.90
43673;DHT22;41723;49.326;8.430;2023-07-30T09:04:12;21.60;99.90
43673;DHT22;41723;49.326;8.430;2023-07-30T09:06:39;21.60;99.90
43673;DHT22;41723;49.326;8.430;2023-07-30T09:09:05;21.60;99.90
43673;DHT22;41723;49.326;8.430;2023-07-30T09:11:32;21.70;99.90
43673;DHT22;41723;49.326;8.430;2023-07-30T09:14:00;21.70;99.90
43673;DHT22;41723;49.326;8.430;2023-07-30T09:16:26;21.70;99.90
43673;DHT22;41723;49.326;8.430;2023-07-30T09:18:53;21.70;99.90
43673;DHT22;41723;49.326;8.430;2023-07-30T09:21:19;21.70;99.90
43673;DHT22;41723;49.326;8.430;2023-07-30T09:23:45;21.70;99.90
43673;DHT22;41723;49.326;8.430;2023-07-30T09:26:12;21.70;99.90
43673;DHT22;41723;49.326;8.430;2023-07-30T09:28:38;21.80;99.90
43673;DHT22;41723;49.326;8.430;2023-07-30T09:31:05;21.70;99.90
43673;DHT22;41723;49.326;8.430;2023-07-30T09:33:31;21.70;99.90
43673;DHT22;41723;49.326;8.430;2023-07-30T09:35:57;21.80;99.90
43673;DHT22;41723;49.326;8.430;2023-07-30T09:38:23;21.80;99.90
43673;DHT22;41723;49.326;8.430;2023-07-30T09:40:48;21.80;99.90
43673;DHT22;41723;49.326;8.430;2023-07-30T09:43:14;21.70;99.90
43673;DHT22;41723;49.326;8.430;2023-07-30T09:45:43;21.60;99.90
43673;DHT22;41723;49.326;8.430;2023-07-30T09:48:09;21.60;99.90
43673;DHT22;41723;49.326;8.430;2023-07-30T09:50:36;21.50;99.90
43673;DHT22;41723;49.326;8.430;2023-07-30T09:53:02;21.40;99.90
43673;DHT22;41723;49.326;8.430;2023-07-30T09:55:28;21.40;99.90
43673;DHT22;41723;49.326;8.430;2023-07-30T09:57:54;21.40;99.90
43673;DHT22;41723;49.326;8.430;2023-07-30T10:00:20;21.60;99.90
43673;DHT22;41723;49.326;8.430;2023-07-30T10:02:46;21.80;99.90
43673;DHT22;41723;49.326;8.430;2023-07-30T10:05:19;21.90;99.90
43673;DHT22;41723;49.326;8.430;2023-07-30T10:08:02;21.90;99.90
43673;DHT22;41723;49.326;8.430;2023-07-30T10:10:29;22.10;99.90
43673;DHT22;41723;49.326;8.430;2023-07-30T10:12:57;22.20;99.90
43673;DHT22;41723;49.326;8.430;2023-07-30T10:15:24;22.40;99.90
43673;DHT22;41723;49.326;8.430;2023-07-30T10:17:53;22.60;99.90
43673;DHT22;41723;49.326;8.430;2023-07-30T10:20:22;22.70;99.20
43673;DHT22;41723;49.326;8.430;2023-07-30T10:22:52;22.80;98.90
43673;DHT22;41723;49.326;8.430;2023-07-30T10:25:20;22.80;98.00
43673;DHT22;41723;49.326;8.430;2023-07-30T10:27:45;22.90;98.20
43673;DHT22;41723;49.326;8.430;2023-07-30T10:30:15;22.90;98.30
43673;DHT22;41723;49.326;8.430;2023-07-30T10:32:42;22.90;98.10
43673;DHT22;41723;49.326;8.430;2023-07-30T10:35:08;22.70;98.20
43673;DHT22;41723;49.326;8.430;2023-07-30T10:37:34;22.70;98.10
43673;DHT22;41723;49.326;8.430;2023-07-30T10:39:59;22.40;97.50
43673;DHT22;41723;49.326;8.430;2023-07-30T10:42:34;22.40;98.10
43673;DHT22;41723;49.326;8.430;2023-07-30T10:45:00;22.30;97.20
43673;DHT22;41723;49.326;8.430;2023-07-30T10:47:29;22.20;97.90
43673;DHT22;41723;49.326;8.430;2023-07-30T10:49:54;22.10;97.50
43673;DHT22;41723;49.326;8.430;2023-07-30T10:52:26;22.10;97.90
43673;DHT22;41723;49.326;8.430;2023-07-30T10:54:59;22.00;98.20
43673;DHT22;41723;49.326;8.430;2023-07-30T10:57:29;22.00;98.30
43673;DHT22;41723;49.326;8.430;2023-07-30T10:59:54;21.90;98.20
43673;DHT22;41723;49.326;8.430;2023-07-30T11:02:21;21.90;98.40
43673;DHT22;41723;49.326;8.430;2023-07-30T11:04:47;21.90;98.80
43673;DHT22;41723;49.326;8.430;2023-07-30T11:07:16;21.90;98.70
43673;DHT22;41723;49.326;8.430;2023-07-30T11:09:42;21.80;98.40
43673;DHT22;41723;49.326;8.430;2023-07-30T11:12:08;21.80;98.30
43673;DHT22;41723;49.326;8.430;2023-07-30T11:14:34;21.90;98.60
43673;DHT22;41723;49.326;8.430;2023-07-30T11:16:59;22.10;98.50
43673;DHT22;41723;49.326;8.430;2023-07-30T11:19:25;22.10;97.80
43673;DHT22;41723;49.326;8.430;2023-07-30T11:21:52;22.10;97.60
43673;DHT22;41723;49.326;8.430;2023-07-30T11:24:17;22.10;97.70
43673;DHT22;41723;49.326;8.430;2023-07-30T11:26:43;22.00;97.20
43673;DHT22;41723;49.326;8.430;2023-07-30T11:29:19;22.10;97.10
43673;DHT22;41723;49.326;8.430;2023-07-30T11:31:45;22.30;96.80
43673;DHT22;41723;49.326;8.430;2023-07-30T11:34:10;22.60;97.50
43673;DHT22;41723;49.326;8.430;2023-07-30T11:36:37;22.90;96.20
43673;DHT22;41723;49.326;8.430;2023-07-30T11:39:03;23.00;94.80
43673;DHT22;41723;49.326;8.430;2023-07-30T11:41:28;22.80;95.10
43673;DHT22;41723;49.326;8.430;2023-07-30T11:43:54;22.70;95.20
43673;DHT22;41723;49.326;8.430;2023-07-30T11:46:20;22.60;95.00
43673;DHT22;41723;49.326;8.430;2023-07-30T11:48:48;22.40;94.70
43673;DHT22;41723;49.326;8.430;2023-07-30T11:53:51;22.30;94.50
43673;DHT22;41723;49.326;8.430;2023-07-30T11:56:21;22.30;94.40
43673;DHT22;41723;49.326;8.430;2023-07-30T11:58:47;22.20;94.20
43673;DHT22;41723;49.326;8.430;2023-07-30T12:01:14;22.20;94.80
43673;DHT22;41723;49.326;8.430;2023-07-30T12:03:39;22.40;95.10
43673;DHT22;41723;49.326;8.430;2023-07-30T12:06:07;22.50;94.70
43673;DHT22;41723;49.326;8.430;2023-07-30T12:08:33;22.50;95.20
43673;DHT22;41723;49.326;8.430;2023-07-30T12:11:02;22.50;94.10
43673;DHT22;41723;49.326;8.430;2023-07-30T12:13:28;22.40;93.90
43673;DHT22;41723;49.326;8.430;2023-07-30T12:15:54;22.30;92.90
43673;DHT22;41723;49.326;8.430;2023-07-30T12:18:20;22.40;93.00
43673;DHT22;41723;49.326;8.430;2023-07-30T12:20:46;22.60;93.00
43673;DHT22;41723;49.326;8.430;2023-07-30T12:23:12;22.60;92.90
43673;DHT22;41723;49.326;8.430;2023-07-30T12:25:37;22.60;92.80
43673;DHT22;41723;49.326;8.430;2023-07-30T12:28:03;22.70;93.10
43673;DHT22;41723;49.326;8.430;2023-07-30T12:30:29;23.00;92.90
43673;DHT22;41723;49.326;8.430;2023-07-30T12:32:55;23.30;93.00
43673;DHT22;41723;49.326;8.430;2023-07-30T12:35:21;23.20;93.20
43673;DHT22;41723;49.326;8.430;2023-07-30T12:37:47;23.30;93.50
43673;DHT22;41723;49.326;8.430;2023-07-30T12:40:12;23.20;92.40
43673;DHT22;41723;49.326;8.430;2023-07-30T12:42:38;23.00;92.60
43673;DHT22;41723;49.326;8.430;2023-07-30T12:45:04;22.70;92.00
43673;DHT22;41723;49.326;8.430;2023-07-30T12:47:29;22.90;92.20
43673;DHT22;41723;49.326;8.430;2023-07-30T12:49:55;23.10;92.20
43673;DHT22;41723;49.326;8.430;2023-07-30T12:52:21;23.30;91.70
43673;DHT22;41723;49.326;8.430;2023-07-30T12:54:46;23.20;91.50
43673;DHT22;41723;49.326;8.430;2023-07-30T12:57:12;23.10;91.40
43673;DHT22;41723;49.326;8.430;2023-07-30T12:59:37;23.00;92.10
43673;DHT22;41723;49.326;8.430;2023-07-30T13:02:03;23.10;92.20
43673;DHT22;41723;49.326;8.430;2023-07-30T13:04:29;22.90;91.20
43673;DHT22;41723;49.326;8.430;2023-07-30T13:06:55;22.80;91.80
43673;DHT22;41723;49.326;8.430;2023-07-30T13:09:21;22.70;91.70
43673;DHT22;41723;49.326;8.430;2023-07-30T13:11:47;22.60;92.00
43673;DHT22;41723;49.326;8.430;2023-07-30T13:14:12;22.70;92.30
43673;DHT22;41723;49.326;8.430;2023-07-30T13:16:38;22.90;92.50
43673;DHT22;41723;49.326;8.430;2023-07-30T13:19:04;22.90;92.10
43673;DHT22;41723;49.326;8.430;2023-07-30T13:21:29;22.80;91.50
43673;DHT22;41723;49.326;8.430;2023-07-30T13:23:55;22.70;92.30
43673;DHT22;41723;49.326;8.430;2023-07-30T13:26:20;22.70;92.70
43673;DHT22;41723;49.326;8.430;2023-07-30T13:28:46;22.70;92.60
43673;DHT22;41723;49.326;8.430;2023-07-30T13:31:11;22.50;92.60
43673;DHT22;41723;49.326;8.430;2023-07-30T13:33:37;22.40;93.40
43673;DHT22;41723;49.326;8.430;2023-07-30T13:36:03;22.40;93.00
43673;DHT22;41723;49.326;8.430;2023-07-30T13:38:29;22.30;92.90
43673;DHT22;41723;49.326;8.430;2023-07-30T13:40:54;22.30;93.20
43673;DHT22;41723;49.326;8.430;2023-07-30T13:43:20;22.40;93.50
43673;DHT22;41723;49.326;8.430;2023-07-30T13:45:46;22.40;93.40
43673;DHT22;41723;49.326;8.430;2023-07-30T13:48:15;22.40;93.20
43673;DHT22;41723;49.326;8.430;2023-07-30T13:50:41;22.30;93.50
43673;DHT22;41723;49.326;8.430;2023-07-30T13:53:07;22.30;93.50
43673;DHT22;41723;49.326;8.430;2023-07-30T13:55:32;22.20;93.50
43673;DHT22;41723;49.326;8.430;2023-07-30T13:57:58;22.20;94.10
43673;DHT22;41723;49.326;8.430;2023-07-30T14:00:24;22.20;93.40
43673;DHT22;41723;49.326;8.430;2023-07-30T14:02:49;22.50;94.00
43673;DHT22;41723;49.326;8.430;2023-07-30T14:05:18;22.80;93.80
43673;DHT22;41723;49.326;8.430;2023-07-30T14:07:43;22.90;92.90
43673;DHT22;41723;49.326;8.430;2023-07-30T14:10:10;22.90;93.00
43673;DHT22;41723;49.326;8.430;2023-07-30T14:12:36;22.90;93.50
43673;DHT22;41723;49.326;8.430;2023-07-30T14:15:02;22.80;92.70
43673;DHT22;41723;49.326;8.430;2023-07-30T14:17:27;22.90;93.40
43673;DHT22;41723;49.326;8.430;2023-07-30T14:19:53;23.00;92.40
43673;DHT22;41723;49.326;8.430;2023-07-30T14:22:21;23.10;92.80
43673;DHT22;41723;49.326;8.430;2023-07-30T14:24:46;22.90;92.30
43673;DHT22;41723;49.326;8.430;2023-07-30T14:27:12;22.70;91.90
43673;DHT22;41723;49.326;8.430;2023-07-30T14:29:38;22.80;92.20
43673;DHT22;41723;49.326;8.430;2023-07-30T14:32:03;23.00;92.30
43673;DHT22;41723;49.326;8.430;2023-07-30T14:34:29;23.00;92.10
43673;DHT22;41723;49.326;8.430;2023-07-30T14:36:55;23.00;92.00
43673;DHT22;41723;49.326;8.430;2023-07-30T14:39:20;22.90;92.20
43673;DHT22;41723;49.326;8.430;2023-07-30T14:41:46;22.70;92.20
43673;DHT22;41723;49.326;8.430;2023-07-30T14:44:11;22.80;92.30
43673;DHT22;41723;49.326;8.430;2023-07-30T14:46:37;22.80;92.50
43673;DHT22;41723;49.326;8.430;2023-07-30T14:49:03;22.70;92.10
43673;DHT22;41723;49.326;8.430;2023-07-30T14:51:28;22.70;92.30
43673;DHT22;41723;49.326;8.430;2023-07-30T14:53:54;22.70;92.00
43673;DHT22;41723;49.326;8.430;2023-07-30T14:56:19;22.70;91.40
43673;DHT22;41723;49.326;8.430;2023-07-30T14:58:45;22.60;91.40
43673;DHT22;41723;49.326;8.430;2023-07-30T15:01:11;22.50;91.20
43673;DHT22;41723;49.326;8.430;2023-07-30T15:03:36;22.50;91.10
43673;DHT22;41723;49.326;8.430;2023-07-30T15:06:02;22.40;91.30
43673;DHT22;41723;49.326;8.430;2023-07-30T15:08:28;22.30;91.20
43673;DHT22;41723;49.326;8.430;2023-07-30T15:10:55;22.40;91.80
43673;DHT22;41723;49.326;8.430;2023-07-30T15:13:20;22.60;91.50
43673;DHT22;41723;49.326;8.430;2023-07-30T15:15:47;22.80;91.30
43673;DHT22;41723;49.326;8.430;2023-07-30T15:18:13;23.00;90.80
43673;DHT22;41723;49.326;8.430;2023-07-30T15:20:38;23.20;91.40
43673;DHT22;41723;49.326;8.430;2023-07-30T15:23:04;23.30;91.30
43673;DHT22;41723;49.326;8.430;2023-07-30T15:25:30;23.20;89.00